Laniel, Canada
Current Conditions -  °F | °C
As of 8:46 PM on Monday 24 Nov 2014 (Local Time) from CYYB Reporting Station
Rain Showers Rain Showers  
Wind Chill: 30°   Ceiling: 200
Heat Index: 41°   Visibility: 3mi
Dew Point: 41°   Wind: 29mph
Humidity: 100%   Direction: 220°SW
Pressure: 29.19"   Gusts: 38mph
Location:  47.03°N, 79.27°W
Report Text: CYYB 250146Z 22025G33KT 190V260 3SM R08/4500VP6000FT/D -SHRA BR OVC002 05/05 A2919 RMK SF8 PRESRR SLP892
Loading
Personal Weather Stations






























Interactive Weather Map New forecast layout! Learn more

10-Day Weather Forecast

Advertisements
Track Severe Weather on mobile